Time;durP1;ratioP1;P1;durP2;ratioP2;P2;SDS_P1;SDS_P2;PMS_P1;PMS_P2;Temp;Humidity;BMP_temperature;BMP_pressure;BME280_temperature;BME280_humidity;BME280_pressure;Samples;Min_cycle;Max_cycle;Signal;HPM_P1;HPM_P2
2022/09/03 00:02:35;;;;;;;11.13;2.33;;;26.10;99.90;;;;;;4964820;28;20065;-51
2022/09/03 00:05:13;;;;;;;11.90;2.33;;;26.10;99.90;;;;;;4968033;28;20038;-52
2022/09/03 00:08:02;;;;;;;9.40;3.03;;;26.10;99.90;;;;;;4975293;28;20070;-52
2022/09/03 00:10:44;;;;;;;16.23;3.03;;;26.20;99.90;;;;;;4975210;28;20340;-52
2022/09/03 00:13:16;;;;;;;8.85;2.75;;;26.20;99.90;;;;;;4975465;28;20050;-52
2022/09/03 00:15:42;;;;;;;9.15;2.75;;;26.20;99.90;;;;;;4975082;28;20066;-51
2022/09/03 00:18:17;;;;;;;9.60;2.72;;;26.20;99.90;;;;;;4975088;28;20027;-52
2022/09/03 00:20:58;;;;;;;11.98;3.38;;;26.20;99.90;;;;;;4975259;28;20030;-51
2022/09/03 00:23:27;;;;;;;13.80;4.03;;;26.20;99.90;;;;;;4973830;28;20108;-51
2022/09/03 00:26:17;;;;;;;16.00;2.92;;;26.20;99.90;;;;;;4975045;28;20237;-52
2022/09/03 00:29:02;;;;;;;13.15;3.58;;;26.20;99.90;;;;;;4975034;28;20071;-52
2022/09/03 00:31:35;;;;;;;19.05;3.72;;;26.20;99.90;;;;;;4974847;28;20030;-53
2022/09/03 00:34:10;;;;;;;18.42;2.92;;;26.10;99.90;;;;;;4974733;28;20134;-52
2022/09/03 00:36:44;;;;;;;18.13;2.95;;;26.10;99.90;;;;;;4974859;28;20545;-53
2022/09/03 00:39:16;;;;;;;19.25;5.15;;;26.10;99.90;;;;;;4974828;28;20027;-52
2022/09/03 00:42:08;;;;;;;13.55;2.85;;;26.10;99.90;;;;;;4973575;28;20368;-52
2022/09/03 00:44:53;;;;;;;16.02;3.22;;;26.10;99.90;;;;;;4958999;28;20039;-52
2022/09/03 00:48:01;;;;;;;13.25;3.60;;;26.10;99.90;;;;;;4974573;28;20047;-52
2022/09/03 00:50:41;;;;;;;11.25;2.35;;;26.10;99.90;;;;;;4955425;28;20045;-52
2022/09/03 00:53:29;;;;;;;8.25;2.10;;;26.20;99.90;;;;;;4973564;28;20033;-52
2022/09/03 00:56:04;;;;;;;8.55;2.30;;;26.20;99.90;;;;;;4974427;28;20090;-52
2022/09/03 00:58:32;;;;;;;8.50;2.97;;;26.30;99.90;;;;;;4974380;28;20498;-52
2022/09/03 01:01:03;;;;;;;10.90;2.63;;;26.30;99.90;;;;;;4987261;23;20051;-53
2022/09/03 01:03:45;;;;;;;12.07;2.92;;;26.40;99.90;;;;;;4974240;28;20031;-52
2022/09/03 01:06:26;;;;;;;15.73;3.13;;;26.50;99.90;;;;;;4974419;28;20035;-52
2022/09/03 01:09:21;;;;;;;14.98;3.65;;;26.50;99.90;;;;;;4974147;28;20019;-52
2022/09/03 01:11:58;;;;;;;16.35;3.15;;;26.50;99.90;;;;;;4974089;28;20034;-54
2022/09/03 01:14:40;;;;;;;11.85;3.45;;;26.60;99.90;;;;;;4972797;28;20026;-53
2022/09/03 01:17:23;;;;;;;13.55;3.22;;;26.50;99.90;;;;;;4973962;28;20049;-52
2022/09/03 01:20:15;;;;;;;17.30;3.45;;;26.50;99.90;;;;;;4974015;28;20058;-53
2022/09/03 01:22:59;;;;;;;17.75;3.20;;;26.50;99.90;;;;;;4971971;28;20042;-53
2022/09/03 01:26:03;;;;;;;13.95;2.58;;;26.50;99.90;;;;;;4973622;28;20027;-53
2022/09/03 01:28:41;;;;;;;16.55;4.03;;;26.50;99.90;;;;;;4954738;28;20450;-52
2022/09/03 01:31:10;;;;;;;;;;;26.50;99.90;;;;;;4974088;28;20019;-52
2022/09/03 01:34:08;;;;;;;8.75;1.48;;;26.50;99.90;;;;;;4973722;28;19969;-54
2022/09/03 01:36:54;;;;;;;6.68;1.63;;;26.50;99.90;;;;;;4973390;28;20031;-54
2022/09/03 01:39:51;;;;;;;17.13;3.08;;;26.50;99.90;;;;;;4973619;28;20019;-53
2022/09/03 01:42:40;;;;;;;15.02;4.32;;;26.50;99.90;;;;;;4973488;28;20057;-53
2022/09/03 01:45:12;;;;;;;9.70;3.05;;;26.50;99.90;;;;;;4973397;28;20050;-51
2022/09/03 01:47:48;;;;;;;12.50;2.33;;;26.50;99.90;;;;;;4973515;28;20471;-52
2022/09/03 01:50:26;;;;;;;10.18;2.10;;;26.50;99.90;;;;;;4973489;28;20438;-50
2022/09/03 01:53:25;;;;;;;8.65;2.03;;;26.50;99.90;;;;;;4973329;28;20359;-50
2022/09/03 01:56:06;;;;;;;7.55;0.93;;;26.50;99.90;;;;;;4973212;28;20041;-50
2022/09/03 01:59:01;;;;;;;8.52;1.30;;;26.50;99.90;;;;;;4973219;28;20099;-50
2022/09/03 02:01:36;;;;;;;6.82;1.50;;;26.50;99.90;;;;;;4973636;28;20394;-50
2022/09/03 02:04:12;;;;;;;9.07;2.15;;;26.60;99.90;;;;;;4973217;28;20035;-49
2022/09/03 02:06:39;;;;;;;4.72;1.50;;;26.60;99.90;;;;;;4973061;28;20039;-50
2022/09/03 02:09:04;;;;;;;11.38;1.75;;;26.70;99.90;;;;;;4972919;28;20035;-50
2022/09/03 02:11:30;;;;;;;8.75;2.13;;;26.70;99.90;;;;;;4973029;28;20069;-50
2022/09/03 02:13:58;;;;;;;14.38;1.42;;;26.70;99.90;;;;;;4973120;28;20023;-51
2022/09/03 02:16:30;;;;;;;8.38;2.40;;;26.80;99.90;;;;;;4972945;28;20057;-52
2022/09/03 02:19:06;;;;;;;5.43;1.40;;;26.80;99.90;;;;;;4971584;28;20023;-51
2022/09/03 02:21:37;;;;;;;3.42;1.25;;;26.90;99.90;;;;;;4972842;28;20387;-51
2022/09/03 02:24:04;;;;;;;3.63;1.00;;;26.90;99.90;;;;;;4972977;28;20492;-51
2022/09/03 02:26:30;;;;;;;4.43;1.02;;;26.90;99.90;;;;;;4972642;28;20390;-52
2022/09/03 02:28:57;;;;;;;2.30;0.70;;;27.00;99.90;;;;;;4972720;28;20030;-51
2022/09/03 02:31:22;;;;;;;1.67;0.55;;;27.10;99.90;;;;;;4972792;28;20027;-51
2022/09/03 02:33:49;;;;;;;6.20;0.60;;;27.10;99.90;;;;;;4972899;28;20023;-52
2022/09/03 02:36:20;;;;;;;4.15;0.70;;;27.10;99.90;;;;;;4972814;28;20034;-52
2022/09/03 02:38:46;;;;;;;6.72;0.77;;;27.20;99.90;;;;;;4972848;28;20038;-51
2022/09/03 02:41:13;;;;;;;6.10;1.00;;;27.30;99.90;;;;;;4972718;28;20386;-51
2022/09/03 02:43:53;;;;;;;9.70;0.93;;;27.40;99.90;;;;;;4972601;28;20521;-52
2022/09/03 02:46:43;;;;;;;2.17;0.77;;;27.40;99.90;;;;;;4972627;28;20046;-53
2022/09/03 02:49:09;;;;;;;5.93;0.60;;;27.40;99.90;;;;;;4972361;28;20027;-51
2022/09/03 02:51:37;;;;;;;4.25;0.70;;;27.50;99.90;;;;;;4972428;28;20031;-52
2022/09/03 02:54:03;;;;;;;5.13;1.02;;;27.50;99.90;;;;;;4972595;28;20031;-53
2022/09/03 02:56:29;;;;;;;2.85;0.50;;;27.50;99.90;;;;;;4972514;28;20510;-51
2022/09/03 02:58:55;;;;;;;3.85;0.90;;;27.50;99.90;;;;;;4972503;28;20032;-54
2022/09/03 03:01:22;;;;;;;5.47;1.15;;;27.50;99.90;;;;;;4972786;28;20145;-54
2022/09/03 03:03:49;;;;;;;7.30;1.03;;;27.50;99.90;;;;;;4972672;28;20100;-54
2022/09/03 03:06:14;;;;;;;5.85;1.00;;;27.50;99.90;;;;;;4972507;28;20570;-55
2022/09/03 03:08:40;;;;;;;5.25;0.90;;;27.60;99.90;;;;;;4972418;28;20563;-55
2022/09/03 03:11:06;;;;;;;9.43;1.67;;;27.50;99.90;;;;;;4972294;28;20066;-53
2022/09/03 03:13:32;;;;;;;4.35;0.85;;;27.60;99.90;;;;;;4972381;28;20026;-54
2022/09/03 03:16:00;;;;;;;3.03;0.95;;;27.60;99.90;;;;;;4972316;28;20027;-56
2022/09/03 03:18:27;;;;;;;4.05;0.80;;;27.60;99.90;;;;;;4976099;28;20054;-54
2022/09/03 03:20:53;;;;;;;1.63;0.60;;;27.60;99.90;;;;;;4976330;28;20023;-55
2022/09/03 03:23:19;;;;;;;1.05;0.60;;;27.60;99.90;;;;;;4976320;28;20190;-54
2022/09/03 03:25:45;;;;;;;2.95;0.60;;;27.60;99.90;;;;;;4975933;28;20560;-54
2022/09/03 03:28:12;;;;;;;4.18;1.33;;;27.60;99.90;;;;;;4975990;28;20026;-54
2022/09/03 03:30:39;;;;;;;2.20;0.93;;;27.60;99.90;;;;;;4975927;28;20031;-54
2022/09/03 03:33:10;;;;;;;2.07;0.87;;;27.70;99.90;;;;;;4975901;28;20057;-52
2022/09/03 03:35:36;;;;;;;4.90;0.90;;;27.70;99.90;;;;;;4974479;28;20696;-53
2022/09/03 03:38:03;;;;;;;8.75;0.98;;;27.70;99.90;;;;;;4975819;28;20031;-52
2022/09/03 03:40:30;;;;;;;7.93;0.80;;;27.70;99.90;;;;;;4975749;28;20026;-54
2022/09/03 03:42:57;;;;;;;4.93;0.80;;;27.70;99.90;;;;;;4975770;28;20174;-54
2022/09/03 03:45:23;;;;;;;11.00;0.90;;;27.60;99.90;;;;;;4975674;28;20031;-53
2022/09/03 03:47:48;;;;;;;5.28;1.25;;;27.60;99.90;;;;;;4974481;28;20046;-52
2022/09/03 03:50:15;;;;;;;4.22;0.70;;;27.60;99.90;;;;;;4975521;28;20023;-52
2022/09/03 03:52:41;;;;;;;6.63;0.93;;;27.60;99.90;;;;;;4975594;28;20026;-53
2022/09/03 03:55:07;;;;;;;2.95;0.80;;;27.60;99.90;;;;;;4975452;28;20376;-54
2022/09/03 03:57:33;;;;;;;7.00;0.60;;;27.60;99.90;;;;;;4975411;28;20033;-54
2022/09/03 03:59:59;;;;;;;4.07;0.60;;;27.50;99.90;;;;;;4975890;28;20034;-53
2022/09/03 04:02:24;;;;;;;5.72;0.80;;;27.50;99.90;;;;;;4975891;28;20070;-54
2022/09/03 04:04:50;;;;;;;4.50;0.80;;;27.60;99.90;;;;;;4975595;28;20027;-54
2022/09/03 04:07:16;;;;;;;4.65;0.60;;;27.50;99.90;;;;;;4974030;28;20268;-52
2022/09/03 04:09:42;;;;;;;4.00;0.68;;;27.50;99.90;;;;;;4975369;28;20041;-51
2022/09/03 04:12:07;;;;;;;4.45;0.70;;;27.50;99.90;;;;;;4975214;28;20030;-51
2022/09/03 04:14:34;;;;;;;3.47;0.50;;;27.50;99.90;;;;;;4975149;28;20031;-56
2022/09/03 04:17:01;;;;;;;1.33;0.67;;;27.50;99.90;;;;;;4975231;28;20027;-55
2022/09/03 04:19:28;;;;;;;5.03;0.60;;;27.40;99.90;;;;;;4975194;28;20105;-52
2022/09/03 04:21:55;;;;;;;2.03;0.50;;;27.40;99.90;;;;;;4975225;28;20038;-53
2022/09/03 04:24:21;;;;;;;3.33;0.85;;;27.40;99.90;;;;;;4975043;28;20031;-53
2022/09/03 04:26:49;;;;;;;4.05;0.60;;;27.40;99.90;;;;;;4974883;28;20453;-53
2022/09/03 04:29:15;;;;;;;4.45;0.70;;;27.40;99.90;;;;;;4973764;28;20500;-53
2022/09/03 04:32:51;;;;;;;7.07;1.42;;;27.30;99.90;;;;;;4974930;28;20023;-51
2022/09/03 04:34:26;;;;;;;5.32;0.80;;;27.40;99.90;;;;;;4974638;28;20475;-51
2022/09/03 04:36:52;;;;;;;2.35;0.85;;;27.40;99.90;;;;;;4989726;28;20027;-54
2022/09/03 04:39:19;;;;;;;6.88;1.00;;;27.40;99.90;;;;;;4973593;28;20027;-53
2022/09/03 04:41:44;;;;;;;6.32;0.93;;;27.40;99.90;;;;;;4974557;28;20106;-52
2022/09/03 04:44:11;;;;;;;5.53;1.48;;;27.30;99.90;;;;;;4974648;28;20106;-53
2022/09/03 04:46:36;;;;;;;11.90;1.23;;;27.30;99.90;;;;;;4973238;28;20046;-52
2022/09/03 04:49:02;;;;;;;13.25;2.33;;;27.30;99.90;;;;;;4974349;28;20023;-52
2022/09/03 04:51:30;;;;;;;9.77;1.63;;;27.30;99.90;;;;;;4974659;28;20037;-54
2022/09/03 04:53:59;;;;;;;4.50;1.20;;;27.30;99.90;;;;;;4965693;28;20027;-56
2022/09/03 04:56:30;;;;;;;2.70;0.82;;;27.40;99.90;;;;;;4955290;28;20075;-54
2022/09/03 04:58:59;;;;;;;3.08;0.80;;;27.30;99.90;;;;;;4968710;28;20031;-55
2022/09/03 05:01:27;;;;;;;3.03;1.42;;;27.30;99.90;;;;;;4964241;28;20051;-55
2022/09/03 05:03:55;;;;;;;4.88;1.30;;;27.30;99.90;;;;;;4953991;28;20235;-54
2022/09/03 05:06:21;;;;;;;4.80;1.08;;;27.30;99.90;;;;;;4957477;28;20026;-54
2022/09/03 05:08:51;;;;;;;14.18;1.70;;;27.30;99.90;;;;;;4971557;28;20576;-54
2022/09/03 05:11:18;;;;;;;7.82;1.25;;;27.40;99.90;;;;;;4960852;28;20434;-53
2022/09/03 05:13:47;;;;;;;6.28;1.13;;;27.40;99.90;;;;;;4973715;28;20118;-54
2022/09/03 05:16:13;;;;;;;9.35;1.98;;;27.50;99.90;;;;;;4971857;28;20027;-53
2022/09/03 05:18:43;;;;;;;7.18;1.90;;;27.50;99.90;;;;;;4972759;28;20084;-53
2022/09/03 05:21:12;;;;;;;3.05;1.50;;;27.60;99.90;;;;;;4973950;28;20085;-54
2022/09/03 05:23:41;;;;;;;7.53;1.58;;;27.60;99.90;;;;;;4972680;28;20023;-54
2022/09/03 05:26:12;;;;;;;2.17;0.85;;;27.70;99.90;;;;;;4973675;28;20073;-53
2022/09/03 05:28:39;;;;;;;3.75;0.90;;;27.70;99.90;;;;;;4973837;28;20023;-53
2022/09/03 05:31:07;;;;;;;3.83;0.82;;;27.80;99.90;;;;;;4973770;28;20400;-53
2022/09/03 05:33:34;;;;;;;5.57;0.90;;;27.80;99.90;;;;;;4973737;28;20381;-52
2022/09/03 05:36:04;;;;;;;7.57;1.20;;;27.80;99.90;;;;;;4973701;28;20038;-53
2022/09/03 05:38:31;;;;;;;5.20;1.23;;;27.80;99.90;;;;;;4973644;28;20437;-51
2022/09/03 05:41:05;;;;;;;5.70;1.05;;;27.80;99.90;;;;;;4973369;28;20027;-52
2022/09/03 05:43:32;;;;;;;5.10;1.63;;;27.80;99.90;;;;;;4973519;28;20021;-52
2022/09/03 05:46:00;;;;;;;5.78;0.95;;;27.80;99.90;;;;;;4973523;28;20023;-53
2022/09/03 05:48:27;;;;;;;2.88;0.95;;;27.90;99.90;;;;;;4973576;28;20413;-52
2022/09/03 05:51:02;;;;;;;5.13;1.98;;;27.90;99.90;;;;;;4973356;28;20037;-52
2022/09/03 05:53:29;;;;;;;3.40;1.10;;;27.90;99.90;;;;;;4973449;28;20118;-51
2022/09/03 05:55:57;;;;;;;3.97;1.63;;;27.90;99.90;;;;;;4973635;28;20027;-52
2022/09/03 05:58:24;;;;;;;2.50;1.20;;;28.00;99.90;;;;;;4973363;28;20061;-52
2022/09/03 06:00:50;;;;;;;13.93;1.93;;;27.90;99.90;;;;;;4973162;28;20051;-52
2022/09/03 06:03:16;;;;;;;8.35;3.78;;;28.00;99.90;;;;;;4973434;28;20027;-52
2022/09/03 06:05:53;;;;;;;2.22;1.50;;;28.00;99.90;;;;;;4973214;28;20034;-52
2022/09/03 06:08:20;;;;;;;8.13;2.22;;;28.00;99.90;;;;;;4973115;28;20034;-52
2022/09/03 06:10:46;;;;;;;3.85;2.10;;;28.00;99.90;;;;;;4973054;28;20133;-54
2022/09/03 06:13:12;;;;;;;4.22;1.48;;;28.00;99.90;;;;;;4971697;28;20478;-52
2022/09/03 06:15:38;;;;;;;4.15;1.23;;;28.00;99.90;;;;;;4972944;28;20097;-53
2022/09/03 06:18:04;;;;;;;3.63;1.15;;;28.00;99.90;;;;;;4972847;28;20602;-50
2022/09/03 06:20:31;;;;;;;3.87;1.57;;;28.00;99.90;;;;;;4973130;28;20027;-54
2022/09/03 06:22:57;;;;;;;5.07;1.27;;;28.00;99.90;;;;;;4973036;28;20108;-53
2022/09/03 06:25:23;;;;;;;4.18;1.30;;;28.00;99.90;;;;;;4972979;28;20150;-52
2022/09/03 06:27:49;;;;;;;4.97;1.15;;;28.00;99.90;;;;;;4972764;28;20605;-52
2022/09/03 06:30:16;;;;;;;2.28;1.20;;;28.00;99.90;;;;;;4972725;28;20475;-52
2022/09/03 06:32:52;;;;;;;6.25;1.25;;;28.10;99.90;;;;;;4972810;28;20039;-51
2022/09/03 06:35:17;;;;;;;2.90;0.98;;;28.00;99.90;;;;;;4972602;28;20434;-53
2022/09/03 06:37:44;;;;;;;3.58;1.05;;;28.10;99.90;;;;;;4972679;28;20026;-51
2022/09/03 06:40:12;;;;;;;6.65;1.13;;;28.10;99.90;;;;;;4972526;28;20105;-51
2022/09/03 06:42:41;;;;;;;8.82;1.23;;;28.10;99.90;;;;;;4972451;28;20046;-51
2022/09/03 06:45:10;;;;;;;4.60;1.48;;;28.10;99.90;;;;;;4972593;28;20034;-52
2022/09/03 06:47:36;;;;;;;5.57;1.30;;;28.10;99.90;;;;;;4972195;28;20039;-52
2022/09/03 06:50:02;;;;;;;4.13;1.13;;;28.20;99.90;;;;;;4972547;28;20023;-52
2022/09/03 06:52:28;;;;;;;3.35;0.85;;;28.20;99.90;;;;;;4972058;28;20090;-52
2022/09/03 06:54:54;;;;;;;6.65;1.45;;;28.20;99.90;;;;;;4972417;28;20029;-52
2022/09/03 06:57:20;;;;;;;9.82;1.27;;;28.20;99.90;;;;;;4971101;28;20366;-52
2022/09/03 06:59:46;;;;;;;8.52;1.77;;;28.30;99.90;;;;;;4972235;28;20051;-53
2022/09/03 07:02:12;;;;;;;6.95;1.40;;;28.30;99.90;;;;;;4972438;28;20019;-52
2022/09/03 07:04:37;;;;;;;3.42;1.35;;;28.30;99.90;;;;;;4972428;28;20105;-52
2022/09/03 07:07:03;;;;;;;1.83;0.88;;;28.30;99.90;;;;;;4972265;28;20125;-52
2022/09/03 07:09:31;;;;;;;3.38;0.90;;;28.30;99.90;;;;;;4972233;28;20027;-52
2022/09/03 07:11:56;;;;;;;3.17;0.75;;;28.40;99.90;;;;;;4972256;28;20027;-52
2022/09/03 07:14:23;;;;;;;7.45;1.40;;;28.40;99.90;;;;;;4972109;28;20093;-52
2022/09/03 07:16:49;;;;;;;2.58;0.80;;;28.40;99.90;;;;;;4970759;28;20030;-51
2022/09/03 07:19:15;;;;;;;4.90;0.90;;;28.40;99.90;;;;;;4972279;28;20027;-51
2022/09/03 07:21:42;;;;;;;3.00;1.00;;;28.40;99.90;;;;;;4972087;28;20026;-52
2022/09/03 07:24:09;;;;;;;4.70;1.10;;;28.40;99.90;;;;;;4972173;28;20029;-51
2022/09/03 07:26:43;;;;;;;1.27;0.75;;;28.50;99.90;;;;;;4972048;28;20038;-52
2022/09/03 07:29:10;;;;;;;8.07;2.50;;;28.50;99.90;;;;;;4972068;28;20026;-53
2022/09/03 07:31:40;;;;;;;1.70;0.98;;;28.50;99.90;;;;;;4972158;28;20038;-52
2022/09/03 07:34:08;;;;;;;2.05;0.90;;;28.60;99.90;;;;;;4972220;28;20356;-51
2022/09/03 07:36:37;;;;;;;2.88;0.65;;;28.60;99.90;;;;;;4972261;28;20035;-51
2022/09/03 07:39:03;;;;;;;1.23;0.60;;;28.60;99.90;;;;;;4972239;28;20031;-51
2022/09/03 07:41:32;;;;;;;2.67;1.08;;;28.60;99.90;;;;;;4970641;28;20487;-51
2022/09/03 07:44:04;;;;;;;1.25;0.80;;;28.60;99.90;;;;;;4972032;28;20066;-51
2022/09/03 07:46:31;;;;;;;1.42;0.65;;;28.60;99.90;;;;;;4971742;28;20433;-52
2022/09/03 07:48:58;;;;;;;6.50;1.92;;;28.70;99.90;;;;;;4971828;28;20066;-52
2022/09/03 07:51:26;;;;;;;3.22;1.05;;;28.70;99.90;;;;;;4971904;28;20108;-51
2022/09/03 07:53:55;;;;;;;2.10;0.90;;;28.70;99.90;;;;;;4971820;28;20034;-52
2022/09/03 07:56:21;;;;;;;2.08;0.90;;;28.70;99.90;;;;;;4971964;28;20027;-52
2022/09/03 07:58:47;;;;;;;4.40;1.45;;;28.70;99.90;;;;;;4971897;28;20039;-52
2022/09/03 08:01:15;;;;;;;5.47;2.55;;;28.70;99.90;;;;;;4971678;28;20134;-52
2022/09/03 08:03:47;;;;;;;5.13;1.20;;;28.70;99.90;;;;;;4974014;28;20037;-52
2022/09/03 08:06:14;;;;;;;1.98;1.17;;;28.70;99.90;;;;;;4974990;28;20499;-52
2022/09/03 08:08:40;;;;;;;4.25;1.98;;;28.70;99.90;;;;;;4975090;28;20037;-51
2022/09/03 08:11:10;;;;;;;2.70;0.90;;;28.70;99.90;;;;;;4975289;28;20035;-51
2022/09/03 08:13:47;;;;;;;2.22;0.98;;;28.70;99.90;;;;;;4975079;28;20023;-52
2022/09/03 08:16:17;;;;;;;1.48;0.80;;;28.70;99.90;;;;;;4974756;28;20074;-52
2022/09/03 08:18:43;;;;;;;4.93;1.02;;;28.70;99.90;;;;;;4975032;28;20023;-52
2022/09/03 08:21:13;;;;;;;3.70;1.15;;;28.70;99.90;;;;;;4974951;28;20019;-52
2022/09/03 08:23:41;;;;;;;2.85;1.55;;;28.70;99.90;;;;;;4975047;28;20065;-51
2022/09/03 08:26:07;;;;;;;3.05;1.30;;;28.80;99.90;;;;;;4974920;28;20470;-52
2022/09/03 08:28:34;;;;;;;2.97;0.85;;;28.80;99.90;;;;;;4973859;28;20125;-52
2022/09/03 08:31:11;;;;;;;1.48;0.75;;;28.80;99.90;;;;;;4974831;28;20033;-51
2022/09/03 08:33:51;;;;;;;2.85;1.27;;;28.80;99.90;;;;;;4974942;28;20031;-51
2022/09/03 08:36:22;;;;;;;2.63;0.80;;;28.80;99.90;;;;;;4973434;28;20023;-51
2022/09/03 08:38:53;;;;;;;4.75;1.50;;;28.80;99.90;;;;;;4974683;28;20030;-51
2022/09/03 08:41:22;;;;;;;6.72;2.22;;;28.80;99.90;;;;;;4974604;28;20037;-52
2022/09/03 08:44:04;;;;;;;3.70;1.67;;;28.90;99.90;;;;;;4974492;28;20414;-51
2022/09/03 08:47:01;;;;;;;9.10;2.17;;;28.90;99.90;;;;;;4974447;28;20046;-51
2022/09/03 08:49:50;;;;;;;4.53;1.45;;;28.90;99.90;;;;;;4971348;28;20034;-53
2022/09/03 08:52:29;;;;;;;8.70;1.67;;;28.80;99.90;;;;;;4968099;28;20038;-52
2022/09/03 08:55:08;;;;;;;4.30;1.38;;;28.90;99.90;;;;;;4974342;28;20046;-52
2022/09/03 08:57:42;;;;;;;8.55;2.20;;;28.90;99.90;;;;;;4974370;28;20039;-52
2022/09/03 09:00:08;;;;;;;9.65;2.25;;;28.90;99.90;;;;;;4974317;28;20121;-52
2022/09/03 09:03:05;;;;;;;5.57;1.30;;;28.90;99.90;;;;;;4974309;28;20114;-55
2022/09/03 09:06:16;;;;;;;6.82;2.03;;;28.80;99.90;;;;;;4974218;28;20026;-53
2022/09/03 09:08:47;;;;;;;10.38;2.00;;;28.70;99.90;;;;;;4965346;28;20042;-52
2022/09/03 09:11:59;;;;;;;8.05;2.25;;;28.60;99.90;;;;;;4974073;28;20483;-52
2022/09/03 09:14:38;;;;;;;4.45;1.83;;;28.50;99.90;;;;;;4963668;28;20041;-51
2022/09/03 09:17:16;;;;;;;5.88;1.48;;;28.50;99.90;;;;;;4973803;28;20101;-50
2022/09/03 09:20:06;;;;;;;10.15;2.15;;;28.40;99.90;;;;;;4973811;28;20027;-52
2022/09/03 09:22:42;;;;;;;12.32;2.85;;;28.50;99.90;;;;;;4973811;28;20034;-52
2022/09/03 09:25:21;;;;;;;9.88;1.85;;;28.40;99.90;;;;;;4973928;28;20027;-52
2022/09/03 09:28:01;;;;;;;8.20;3.00;;;28.40;99.90;;;;;;4973579;28;20035;-52
2022/09/03 09:30:29;;;;;;;11.55;2.25;;;28.40;99.90;;;;;;4973878;28;20030;-52
2022/09/03 09:32:56;;;;;;;13.20;2.40;;;28.40;99.90;;;;;;4973743;28;20540;-51
2022/09/03 09:35:23;;;;;;;9.55;2.10;;;28.50;99.90;;;;;;4973618;28;20102;-52
2022/09/03 09:37:50;;;;;;;8.38;2.00;;;28.50;99.90;;;;;;4973538;28;20023;-52
2022/09/03 09:40:26;;;;;;;6.50;1.67;;;28.50;99.90;;;;;;4973518;28;20023;-52
2022/09/03 09:43:06;;;;;;;8.77;2.67;;;28.50;99.90;;;;;;4973466;28;20022;-54
2022/09/03 09:45:36;;;;;;;8.85;2.08;;;28.60;99.90;;;;;;4973358;28;20471;-52
2022/09/03 09:48:06;;;;;;;5.72;2.65;;;28.60;99.90;;;;;;4973190;28;20049;-53
2022/09/03 09:50:32;;;;;;;8.38;1.88;;;28.60;99.90;;;;;;4972785;28;20093;-52
2022/09/03 09:53:13;;;;;;;9.30;2.70;;;28.60;99.90;;;;;;4973139;28;20018;-52
2022/09/03 09:55:56;;;;;;;5.63;2.22;;;28.60;99.90;;;;;;4973027;28;20089;-52
2022/09/03 09:58:25;;;;;;;6.18;2.15;;;28.60;99.90;;;;;;4972781;28;20086;-52
2022/09/03 10:01:15;;;;;;;19.42;15.20;;;28.60;99.90;;;;;;4972729;28;20078;-52
2022/09/03 10:03:53;;;;;;;9.50;4.18;;;28.70;99.90;;;;;;4968868;28;20046;-53
2022/09/03 10:09:18;;;;;;;16.42;10.27;;;28.70;99.90;;;;;;4972829;28;20454;-53
2022/09/03 10:11:50;;;;;;;10.45;3.35;;;28.70;99.90;;;;;;4972509;28;20027;-54
2022/09/03 10:14:26;;;;;;;10.52;3.08;;;28.70;99.90;;;;;;4972636;28;20486;-54
2022/09/03 10:17:11;;;;;;;9.60;3.50;;;28.70;99.90;;;;;;4972630;28;20364;-53
2022/09/03 10:20:26;;;;;;;8.98;2.83;;;28.60;99.90;;;;;;4972391;28;20395;-53
2022/09/03 10:22:45;;;;;;;10.73;2.65;;;28.60;99.90;;;;;;4972528;28;20038;-53
2022/09/03 10:25:14;;;;;;;9.32;3.15;;;28.60;99.90;;;;;;4972589;28;20034;-53
2022/09/03 10:27:41;;;;;;;10.52;4.50;;;28.60;99.90;;;;;;4971710;28;20097;-54
2022/09/03 10:30:07;;;;;;;11.18;6.50;;;28.60;99.90;;;;;;4972488;28;20018;-54
2022/09/03 10:32:36;;;;;;;22.92;13.80;;;28.60;99.90;;;;;;4972551;28;20039;-53
2022/09/03 10:35:29;;;;;;;20.42;12.68;;;28.50;99.90;;;;;;4971033;28;20458;-53
2022/09/03 10:38:08;;;;;;;8.52;4.68;;;28.40;99.90;;;;;;4972201;28;20497;-54
2022/09/03 10:40:36;;;;;;;8.30;4.35;;;28.40;99.90;;;;;;4970968;28;20058;-53
2022/09/03 10:43:05;;;;;;;8.43;3.40;;;28.40;99.90;;;;;;4972224;28;20422;-53
2022/09/03 10:45:50;;;;;;;12.40;4.88;;;28.40;99.90;;;;;;4972120;28;20023;-53
2022/09/03 10:48:31;;;;;;;13.15;3.72;;;28.40;99.90;;;;;;4972306;28;20035;-53
2022/09/03 10:51:03;;;;;;;12.75;5.47;;;28.40;99.90;;;;;;4972138;28;20435;-55
2022/09/03 10:53:49;;;;;;;12.13;5.03;;;28.40;99.90;;;;;;4972211;28;20042;-53
2022/09/03 10:56:49;;;;;;;15.43;6.07;;;28.20;99.90;;;;;;4972246;28;20034;-54
2022/09/03 10:59:33;;;;;;;9.85;3.05;;;28.10;99.90;;;;;;4969896;28;20031;-53
2022/09/03 11:02:08;;;;;;;9.80;3.10;;;28.00;99.90;;;;;;4972091;28;20133;-53
2022/09/03 11:04:53;;;;;;;9.07;3.42;;;28.00;99.90;;;;;;4972218;28;20054;-56
2022/09/03 11:07:29;;;;;;;14.57;4.82;;;28.00;99.90;;;;;;4971996;28;20041;-53
2022/09/03 11:10:26;;;;;;;12.90;3.90;;;27.90;99.90;;;;;;4971971;28;20092;-52
2022/09/03 11:13:04;;;;;;;8.93;4.05;;;27.80;99.90;;;;;;4971750;28;20397;-53
2022/09/03 11:15:44;;;;;;;7.97;2.95;;;27.80;99.90;;;;;;4971929;28;20027;-52
2022/09/03 11:18:30;;;;;;;12.63;2.67;;;27.80;99.90;;;;;;4971815;28;20026;-53
2022/09/03 11:21:03;;;;;;;9.30;2.47;;;27.90;99.90;;;;;;4971946;28;20051;-53
2022/09/03 11:23:35;;;;;;;9.00;2.28;;;28.00;99.90;;;;;;4972027;28;20023;-54
2022/09/03 11:26:06;;;;;;;13.32;2.58;;;28.00;99.90;;;;;;4971995;28;20034;-54
2022/09/03 11:28:44;;;;;;;8.48;2.33;;;28.00;99.90;;;;;;4971760;28;20026;-56
2022/09/03 11:31:24;;;;;;;11.65;2.88;;;27.90;99.90;;;;;;4971793;28;20054;-53
2022/09/03 11:33:57;;;;;;;10.00;2.03;;;27.80;99.90;;;;;;4971925;28;20031;-52
2022/09/03 11:36:37;;;;;;;11.57;2.35;;;27.70;99.90;;;;;;4971931;28;20027;-54
2022/09/03 11:39:30;;;;;;;8.57;2.65;;;27.70;99.90;;;;;;4974903;28;20030;-54
2022/09/03 11:41:58;;;;;;;11.38;2.30;;;27.60;99.90;;;;;;4975524;28;20023;-59
2022/09/03 11:44:35;;;;;;;8.23;2.65;;;27.70;99.90;;;;;;4975427;28;20113;-53
2022/09/03 11:47:00;;;;;;;13.10;4.30;;;27.60;99.90;;;;;;4975299;28;20564;-53
2022/09/03 11:49:32;;;;;;;8.70;3.00;;;27.60;99.90;;;;;;4975340;28;20257;-53
2022/09/03 11:52:03;;;;;;;11.73;3.25;;;27.50;99.90;;;;;;4975407;28;20030;-51
2022/09/03 11:54:42;;;;;;;5.97;2.42;;;27.50;99.90;;;;;;4975296;28;20355;-52
2022/09/03 11:57:15;;;;;;;12.30;4.10;;;27.50;99.90;;;;;;4974125;28;20043;-53
2022/09/03 11:59:43;;;;;;;12.32;4.30;;;27.50;99.90;;;;;;4974912;28;20363;-53
2022/09/03 12:02:32;;;;;;;8.00;3.22;;;27.50;99.90;;;;;;4975095;28;20498;-52
2022/09/03 12:05:24;;;;;;;9.10;2.63;;;27.50;99.90;;;;;;4974914;28;20530;-52
2022/09/03 12:08:11;;;;;;;7.07;2.97;;;27.50;99.90;;;;;;4974935;28;20125;-52
2022/09/03 12:10:40;;;;;;;9.00;3.15;;;27.60;99.90;;;;;;4974987;28;20482;-52
2022/09/03 12:13:27;;;;;;;28.50;12.48;;;27.70;99.90;;;;;;4974895;28;20387;-53
2022/09/03 12:16:23;;;;;;;20.77;7.13;;;27.70;99.90;;;;;;4974822;28;20026;-52
2022/09/03 12:18:51;;;;;;;29.90;15.55;;;27.80;99.90;;;;;;4974998;28;20035;-53
2022/09/03 12:21:18;;;;;;;16.25;5.97;;;27.80;99.90;;;;;;4974945;28;20035;-52
2022/09/03 12:23:52;;;;;;;11.83;4.40;;;27.80;99.90;;;;;;4974723;28;20039;-53
2022/09/03 12:26:26;;;;;;;9.20;3.35;;;27.80;99.90;;;;;;4974690;28;20046;-52
2022/09/03 12:28:59;;;;;;;18.40;6.78;;;27.80;99.90;;;;;;4974629;28;20402;-55
2022/09/03 12:31:30;;;;;;;17.95;4.00;;;27.80;99.90;;;;;;4974492;28;20057;-55
2022/09/03 12:34:09;;;;;;;8.63;2.72;;;27.80;99.90;;;;;;4974362;28;20471;-54
2022/09/03 12:36:44;;;;;;;8.98;2.58;;;27.70;99.90;;;;;;4974412;28;20394;-53
2022/09/03 12:39:15;;;;;;;10.25;3.22;;;27.70;99.90;;;;;;4974483;28;20105;-55
2022/09/03 12:42:05;;;;;;;9.00;3.40;;;27.60;99.90;;;;;;4974381;28;20031;-54
2022/09/03 12:44:40;;;;;;;7.63;3.08;;;27.50;99.90;;;;;;4974380;28;20027;-54
2022/09/03 12:47:19;;;;;;;7.75;3.42;;;27.40;99.90;;;;;;4974034;28;20038;-54
2022/09/03 12:49:50;;;;;;;12.93;3.47;;;27.30;99.90;;;;;;4973247;28;20023;-54
2022/09/03 12:52:35;;;;;;;12.63;2.92;;;27.20;99.90;;;;;;4972837;28;20046;-54
2022/09/03 12:55:28;;;;;;;8.77;2.58;;;27.10;99.90;;;;;;4974173;28;20106;-54
2022/09/03 12:58:05;;;;;;;11.60;2.33;;;27.10;99.90;;;;;;4974090;28;20109;-54
2022/09/03 13:00:32;;;;;;;;;;;27.20;99.90;;;;;;4974269;28;20182;-55
2022/09/03 13:03:11;;;;;;;16.75;6.85;;;27.20;99.90;;;;;;4973991;28;19910;-53
2022/09/03 13:05:48;;;;;;;12.85;4.38;;;27.30;99.90;;;;;;4973899;28;20023;-55
2022/09/03 13:08:32;;;;;;;10.60;3.63;;;27.30;99.90;;;;;;4974061;28;20053;-54
2022/09/03 13:11:03;;;;;;;14.27;3.17;;;27.30;99.90;;;;;;4973894;28;20031;-54
2022/09/03 13:13:35;;;;;;;10.60;2.92;;;27.20;99.90;;;;;;4973859;28;20386;-54
2022/09/03 13:16:29;;;;;;;11.55;2.75;;;27.30;99.90;;;;;;4973977;28;20037;-55
2022/09/03 13:19:07;;;;;;;6.35;2.17;;;27.30;99.90;;;;;;4973843;28;20023;-54
2022/09/03 13:21:47;;;;;;;;;;;27.40;99.90;;;;;;4974097;28;20034;-54